Time;durP1;ratioP1;P1;durP2;ratioP2;P2;SDS_P1;SDS_P2;PMS_P1;PMS_P2;Temp;Humidity;BMP_temperature;BMP_pressure;BME280_temperature;BME280_humidity;BME280_pressure;Samples;Min_cycle;Max_cycle;Signal;HPM_P1;HPM_P2
2021/08/05 00:01:53;;;;;;;3.23;2.57;;;;;;;24.80;43.95;97955.28;5032979;28;20202;-58
2021/08/05 00:04:20;;;;;;;3.00;2.70;;;;;;;24.76;44.38;97949.53;5032947;28;20221;-58
2021/08/05 00:06:46;;;;;;;2.80;2.60;;;;;;;24.78;44.03;97952.00;5032982;28;20189;-58
2021/08/05 00:09:13;;;;;;;2.40;2.20;;;;;;;24.77;44.25;97961.06;5032857;28;20204;-58
2021/08/05 00:11:39;;;;;;;2.47;2.33;;;;;;;24.75;44.21;97957.75;5033232;28;20552;-58
2021/08/05 00:14:06;;;;;;;3.10;2.33;;;;;;;24.77;44.20;97958.38;5032755;28;20216;-58
2021/08/05 00:16:33;;;;;;;2.70;2.50;;;;;;;24.78;44.30;97957.34;5032848;28;20186;-58
2021/08/05 00:19:00;;;;;;;2.67;2.47;;;;;;;24.79;44.35;97958.97;5033044;28;20225;-58
2021/08/05 00:21:26;;;;;;;2.23;2.13;;;;;;;24.82;44.24;97949.75;5032863;28;20194;-58
2021/08/05 00:23:53;;;;;;;2.60;2.40;;;;;;;24.79;44.20;97949.16;5032761;28;20331;-58
2021/08/05 00:26:19;;;;;;;2.47;2.33;;;;;;;24.78;44.13;97954.69;5032733;28;20212;-58
2021/08/05 00:28:47;;;;;;;2.90;2.70;;;;;;;24.80;44.36;97960.63;5015150;28;20239;-58
2021/08/05 00:31:17;;;;;;;2.40;2.20;;;;;;;24.80;44.30;97952.63;5033949;28;20182;-58
2021/08/05 00:33:44;;;;;;;3.43;2.43;;;;;;;24.92;43.77;97947.41;5036672;28;20284;-58
2021/08/05 00:36:11;;;;;;;2.53;2.33;;;;;;;24.98;43.83;97945.72;5035225;28;20243;-58
2021/08/05 00:38:37;;;;;;;2.40;2.20;;;;;;;25.02;43.52;97947.75;5035284;28;20190;-58
2021/08/05 00:41:04;;;;;;;2.50;2.30;;;;;;;25.02;43.32;97947.75;5037095;28;20193;-58
2021/08/05 00:43:34;;;;;;;2.33;2.23;;;;;;;25.03;43.61;97948.59;5051874;28;20218;-58
2021/08/05 00:46:03;;;;;;;2.80;2.50;;;;;;;25.02;43.39;97936.28;5036504;28;20201;-58
2021/08/05 00:48:30;;;;;;;3.60;2.47;;;;;;;25.08;43.50;97940.75;5035159;28;20620;-56
2021/08/05 00:50:58;;;;;;;2.43;2.23;;;;;;;25.07;43.46;97925.75;5035142;28;20201;-58
2021/08/05 00:53:27;;;;;;;2.50;2.30;;;;;;;25.08;43.14;97927.38;5035031;28;20263;-58
2021/08/05 00:55:55;;;;;;;4.23;2.40;;;;;;;25.07;43.18;97923.88;5034975;28;20214;-57
2021/08/05 00:58:22;;;;;;;2.30;2.10;;;;;;;25.09;43.38;97921.00;5035078;28;20221;-58
2021/08/05 01:00:55;;;;;;;2.70;2.50;;;;;;;25.11;43.17;97918.94;5035235;28;20201;-58
2021/08/05 01:03:25;;;;;;;2.47;2.30;;;;;;;25.08;43.32;97920.19;5036193;28;20267;-58
2021/08/05 01:06:01;;;;;;;2.57;2.37;;;;;;;25.11;43.10;97918.94;5035097;28;20186;-58
2021/08/05 01:08:29;;;;;;;2.17;2.00;;;;;;;25.11;43.20;97912.81;5034781;28;20284;-58
2021/08/05 01:11:21;;;;;;;2.60;2.40;;;;;;;25.08;43.33;97914.03;5034790;28;20198;-58
2021/08/05 01:13:55;;;;;;;2.80;2.60;;;;;;;25.11;42.99;97904.78;5036077;28;20206;-58
2021/08/05 01:16:28;;;;;;;2.80;2.60;;;;;;;25.09;43.04;97918.34;5034553;28;20210;-60
2021/08/05 01:19:11;;;;;;;2.60;2.40;;;;;;;25.08;43.24;97919.38;5034654;28;20251;-58
2021/08/05 01:22:03;;;;;;;2.53;2.23;;;;;;;25.02;43.22;97912.25;5034670;28;20182;-58
2021/08/05 01:24:35;;;;;;;2.47;2.27;;;;;;;25.04;43.23;97915.50;5051235;28;20190;-58
2021/08/05 01:27:03;;;;;;;2.20;2.10;;;;;;;25.02;43.17;97918.38;5036077;28;20178;-58
2021/08/05 01:29:34;;;;;;;2.83;2.20;;;;;;;25.02;43.29;97915.72;5035721;28;20193;-58
2021/08/05 01:32:04;;;;;;;4.67;2.23;;;;;;;24.99;43.30;97902.81;5034377;28;20186;-59
2021/08/05 01:34:32;;;;;;;2.60;2.40;;;;;;;24.95;43.46;97905.09;5035700;28;20522;-59
2021/08/05 01:37:00;;;;;;;4.07;2.50;;;;;;;24.95;43.50;97905.09;5034391;28;20179;-58
2021/08/05 01:39:28;;;;;;;2.50;2.30;;;;;;;24.95;43.29;97905.09;5034288;28;20206;-59
2021/08/05 01:41:55;;;;;;;2.80;2.60;;;;;;;24.93;43.44;97895.69;5035194;28;20193;-59
2021/08/05 01:44:22;;;;;;;2.40;2.20;;;;;;;24.93;43.36;97896.50;5050697;28;20222;-59
2021/08/05 01:46:49;;;;;;;2.70;2.50;;;;;;;24.92;43.56;97904.69;5035428;28;20212;-59
2021/08/05 01:49:17;;;;;;;2.50;2.30;;;;;;;24.90;43.56;97886.25;5035419;28;20665;-59
2021/08/05 01:51:47;;;;;;;4.07;2.53;;;;;;;25.11;42.85;97891.44;5035399;28;20214;-59
2021/08/05 01:54:14;;;;;;;2.07;1.97;;;;;;;25.14;42.99;97891.81;5035355;28;20216;-59
2021/08/05 01:56:41;;;;;;;2.77;2.50;;;;;;;25.14;42.89;97891.00;5034571;28;20236;-59
2021/08/05 01:59:07;;;;;;;2.60;2.40;;;;;;;25.13;42.87;97895.50;5035228;28;20194;-59
2021/08/05 02:01:35;;;;;;;2.60;2.40;;;;;;;25.13;42.92;97892.84;5035106;28;20190;-59
2021/08/05 02:04:24;;;;;;;2.43;2.30;;;;;;;25.06;42.96;97889.41;5035267;28;20212;-59
2021/08/05 02:07:02;;;;;;;2.47;2.30;;;;;;;25.08;42.90;97890.00;5035371;28;20170;-59
2021/08/05 02:09:34;;;;;;;2.40;2.10;;;;;;;24.70;43.79;97896.22;5035058;28;20171;-59
2021/08/05 02:12:01;;;;;;;2.20;2.10;;;;;;;24.68;43.96;97893.75;5033642;28;20197;-59
2021/08/05 02:14:29;;;;;;;2.50;2.30;;;;;;;24.71;43.76;97887.19;5033644;28;20191;-59
2021/08/05 02:17:00;;;;;;;2.93;2.40;;;;;;;24.69;44.02;97891.91;5034019;28;20190;-59
2021/08/05 02:19:29;;;;;;;2.40;2.20;;;;;;;24.68;43.65;97888.41;5017287;28;20213;-59
2021/08/05 02:21:57;;;;;;;2.47;2.27;;;;;;;24.65;44.04;97881.66;5033492;28;20202;-58
2021/08/05 02:24:28;;;;;;;3.30;2.10;;;;;;;24.66;43.83;97877.97;5033535;28;20197;-59
2021/08/05 02:26:56;;;;;;;2.30;2.00;;;;;;;24.71;43.81;97868.50;5034251;28;20297;-59
2021/08/05 02:29:22;;;;;;;2.73;2.53;;;;;;;25.06;42.84;97868.06;5035175;28;20194;-59
2021/08/05 02:31:49;;;;;;;2.70;2.50;;;;;;;25.13;42.94;97871.47;5033276;28;20665;-58
2021/08/05 02:34:18;;;;;;;2.50;2.30;;;;;;;25.15;42.75;97869.41;5034422;28;20264;-60
2021/08/05 02:36:45;;;;;;;2.50;2.30;;;;;;;25.15;42.74;97864.06;5034812;28;20214;-59
2021/08/05 02:39:11;;;;;;;2.37;2.17;;;;;;;25.18;42.81;97860.97;5034556;28;20194;-59
2021/08/05 02:41:38;;;;;;;2.57;2.40;;;;;;;25.16;42.68;97863.03;5034640;28;20190;-59
2021/08/05 02:44:06;;;;;;;2.07;1.97;;;;;;;25.09;43.02;97862.28;5034563;28;20214;-59
2021/08/05 02:46:34;;;;;;;2.33;2.23;;;;;;;25.08;42.73;97866.00;5033144;28;20538;-59
2021/08/05 02:49:02;;;;;;;2.57;2.37;;;;;;;24.97;43.14;97858.69;5034512;28;20186;-59
2021/08/05 02:51:30;;;;;;;2.40;2.20;;;;;;;24.73;43.59;97863.78;5034689;28;20186;-61
2021/08/05 02:53:56;;;;;;;3.00;2.80;;;;;;;24.74;43.54;97866.22;5032828;28;20219;-59
2021/08/05 02:56:23;;;;;;;2.30;2.10;;;;;;;24.75;43.47;97867.03;5016526;28;20692;-60
2021/08/05 02:58:50;;;;;;;2.10;2.00;;;;;;;24.71;43.50;97860.50;5032969;28;20248;-58
2021/08/05 03:01:20;;;;;;;2.20;2.10;;;;;;;24.71;43.67;97855.97;5049508;28;20190;-58
2021/08/05 03:03:51;;;;;;;2.50;2.30;;;;;;;24.71;43.53;97855.16;5034082;28;20210;-58
2021/08/05 03:06:22;;;;;;;2.70;2.50;;;;;;;24.73;43.50;97861.91;5034116;28;20220;-60
2021/08/05 03:08:49;;;;;;;2.50;2.30;;;;;;;24.70;43.69;97859.69;5034346;28;20240;-59
2021/08/05 03:11:15;;;;;;;2.37;2.17;;;;;;;24.67;43.59;97858.25;5034554;28;20194;-58
2021/08/05 03:13:42;;;;;;;3.80;2.63;;;;;;;24.66;43.84;97859.28;5034036;28;20736;-58
2021/08/05 03:16:08;;;;;;;2.00;1.90;;;;;;;24.65;43.72;97857.66;5032656;28;20214;-59
2021/08/05 03:18:35;;;;;;;2.40;2.10;;;;;;;24.65;43.62;97852.31;5033862;28;20648;-60
2021/08/05 03:21:01;;;;;;;2.33;2.10;;;;;;;24.66;43.71;97858.47;5034067;28;20248;-58
2021/08/05 03:23:28;;;;;;;2.20;2.00;;;;;;;24.66;43.67;97850.47;5033703;28;20217;-59
2021/08/05 03:25:54;;;;;;;2.63;2.43;;;;;;;24.63;43.83;97851.72;5033710;28;20549;-59
2021/08/05 03:28:20;;;;;;;2.17;2.00;;;;;;;24.65;43.56;97852.31;5034034;28;20190;-59
2021/08/05 03:30:47;;;;;;;4.13;2.17;;;;;;;24.63;43.59;97849.03;5033629;28;20194;-59
2021/08/05 03:33:13;;;;;;;2.33;2.17;;;;;;;24.65;43.72;97846.97;5033563;28;20256;-59
2021/08/05 03:35:40;;;;;;;2.53;2.30;;;;;;;24.64;43.62;97850.69;5033504;28;20217;-59
2021/08/05 03:38:06;;;;;;;2.30;2.20;;;;;;;24.66;43.66;97848.63;5015804;28;20665;-59
2021/08/05 03:40:33;;;;;;;2.30;2.10;;;;;;;24.66;43.54;97847.81;5033700;28;20202;-59
2021/08/05 03:42:59;;;;;;;2.40;2.20;;;;;;;24.69;43.42;97843.88;5033363;28;20206;-59
2021/08/05 03:45:26;;;;;;;2.60;2.40;;;;;;;24.64;43.53;97844.53;5033385;28;20649;-59
2021/08/05 03:47:52;;;;;;;2.33;2.03;;;;;;;24.64;43.64;97840.00;5033329;28;20252;-60
2021/08/05 03:50:19;;;;;;;2.63;2.37;;;;;;;24.66;43.67;97840.59;5033588;28;20190;-60
2021/08/05 03:52:45;;;;;;;2.23;2.13;;;;;;;24.71;43.43;97844.50;5033280;28;20218;-59
2021/08/05 03:55:15;;;;;;;2.27;2.17;;;;;;;24.68;43.27;97845.75;5033190;28;20665;-59
2021/08/05 03:57:43;;;;;;;2.17;2.07;;;;;;;24.64;43.63;97845.34;5033770;28;20244;-59
2021/08/05 04:00:15;;;;;;;2.47;2.30;;;;;;;24.62;43.58;97851.94;5033507;28;20603;-58
2021/08/05 04:02:41;;;;;;;3.77;2.27;;;;;;;24.63;43.43;97854.38;5033366;28;20260;-59
2021/08/05 04:05:09;;;;;;;2.43;2.23;;;;;;;24.57;43.72;97844.59;5032719;28;20191;-59
2021/08/05 04:07:36;;;;;;;2.73;2.20;;;;;;;24.56;43.89;97858.97;5033868;28;20201;-59
2021/08/05 04:10:03;;;;;;;2.23;2.03;;;;;;;24.56;43.75;97858.13;5033010;28;20194;-59
2021/08/05 04:12:30;;;;;;;3.23;2.50;;;;;;;24.55;43.86;97845.81;5033315;28;20209;-60
2021/08/05 04:14:56;;;;;;;2.57;2.37;;;;;;;24.55;43.80;97837.81;5033051;28;20661;-59
2021/08/05 04:17:23;;;;;;;2.53;2.33;;;;;;;24.53;43.84;97838.06;5032857;28;20210;-60
2021/08/05 04:19:49;;;;;;;2.20;2.10;;;;;;;24.52;43.81;97836.41;5033557;28;20247;-60
2021/08/05 04:22:16;;;;;;;2.23;2.13;;;;;;;24.56;43.70;97840.28;5032901;28;20186;-60
2021/08/05 04:24:43;;;;;;;2.57;2.30;;;;;;;24.55;43.76;97833.31;5032880;28;20197;-59
2021/08/05 04:27:09;;;;;;;3.17;2.20;;;;;;;24.57;43.64;97833.09;5032920;28;20194;-59
2021/08/05 04:29:35;;;;;;;3.30;2.47;;;;;;;24.58;43.75;97832.88;5032926;28;20194;-59
2021/08/05 04:32:02;;;;;;;2.50;2.30;;;;;;;24.58;43.61;97838.22;5032782;28;20664;-60
2021/08/05 04:34:29;;;;;;;2.20;2.10;;;;;;;24.57;43.53;97833.91;5032820;28;20222;-60
2021/08/05 04:36:56;;;;;;;2.60;2.40;;;;;;;24.55;43.77;97833.31;5033060;28;20326;-59
2021/08/05 04:39:23;;;;;;;2.50;2.30;;;;;;;24.52;43.79;97833.72;5032784;28;20197;-60
2021/08/05 04:41:49;;;;;;;2.47;2.27;;;;;;;24.53;44.04;97835.38;5033056;28;20610;-59
2021/08/05 04:44:16;;;;;;;2.67;2.30;;;;;;;24.55;43.82;97827.97;5032783;28;20611;-59
2021/08/05 04:46:42;;;;;;;2.17;1.97;;;;;;;24.52;43.86;97828.41;5032767;28;20186;-59
2021/08/05 04:49:09;;;;;;;2.47;2.27;;;;;;;24.51;43.85;97832.94;5033105;28;20524;-59
2021/08/05 04:51:35;;;;;;;2.33;2.10;;;;;;;24.52;43.69;97836.41;5032775;28;20687;-60
2021/08/05 04:54:03;;;;;;;2.73;2.53;;;;;;;24.59;43.48;97841.69;5032599;28;20255;-60
2021/08/05 04:56:31;;;;;;;2.30;2.20;;;;;;;24.60;43.65;97844.16;5032696;28;20236;-59
2021/08/05 04:58:58;;;;;;;2.60;2.13;;;;;;;24.59;43.71;97839.03;5033030;28;20190;-59
2021/08/05 05:01:24;;;;;;;2.50;2.30;;;;;;;24.59;43.59;97837.19;5032988;28;20661;-59
2021/08/05 05:03:51;;;;;;;2.20;2.00;;;;;;;24.70;43.27;97843.66;5032979;28;20206;-59
2021/08/05 05:06:18;;;;;;;2.47;2.27;;;;;;;24.76;43.17;97839.34;5033599;28;20186;-59
2021/08/05 05:08:44;;;;;;;2.40;2.30;;;;;;;24.78;43.11;97840.78;5034345;28;20240;-60
2021/08/05 05:11:11;;;;;;;2.40;2.20;;;;;;;24.84;42.84;97843.59;5035047;28;20193;-60
2021/08/05 05:13:37;;;;;;;2.67;2.47;;;;;;;24.84;43.03;97836.41;5034882;28;20206;-59
2021/08/05 05:16:04;;;;;;;2.20;2.10;;;;;;;24.87;42.83;97838.66;5034967;28;20213;-60
2021/08/05 05:18:31;;;;;;;2.73;2.27;;;;;;;24.87;42.95;97841.31;5036585;28;20611;-60
2021/08/05 05:20:57;;;;;;;2.73;2.50;;;;;;;24.91;42.71;97845.19;5039247;28;20245;-59
2021/08/05 05:23:24;;;;;;;2.30;2.20;;;;;;;24.90;42.64;97838.22;5039343;28;20213;-61
2021/08/05 05:25:50;;;;;;;2.17;2.03;;;;;;;24.97;42.58;97842.66;5039372;28;20190;-60
2021/08/05 05:28:17;;;;;;;2.23;2.13;;;;;;;24.99;42.61;97838.75;5039504;28;20202;-60
2021/08/05 05:30:43;;;;;;;2.47;2.00;;;;;;;25.02;42.70;97840.97;5039174;28;20661;-60
2021/08/05 05:33:10;;;;;;;2.63;2.43;;;;;;;25.05;42.35;97840.53;5039077;28;20237;-60
2021/08/05 05:35:37;;;;;;;2.40;2.20;;;;;;;25.06;42.53;97836.03;5039317;28;20208;-60
2021/08/05 05:38:04;;;;;;;2.93;2.00;;;;;;;25.07;42.56;97837.66;5038912;28;20657;-60
2021/08/05 05:40:31;;;;;;;2.30;2.10;;;;;;;25.06;42.45;97839.50;5039030;28;20198;-60
2021/08/05 05:43:00;;;;;;;2.77;2.57;;;;;;;25.06;42.49;97834.16;5039157;28;20210;-60
2021/08/05 05:45:27;;;;;;;2.20;2.10;;;;;;;25.06;42.45;97834.16;5038338;28;20186;-60
2021/08/05 05:47:54;;;;;;;2.93;2.20;;;;;;;25.08;42.46;97836.63;5037522;28;20240;-61
2021/08/05 05:50:21;;;;;;;2.07;1.97;;;;;;;25.08;42.45;97831.28;5038250;28;20197;-61
2021/08/05 05:52:48;;;;;;;2.50;2.30;;;;;;;25.08;42.66;97840.09;5037723;28;20693;-60
2021/08/05 05:55:16;;;;;;;2.43;2.23;;;;;;;25.07;42.69;97835.00;5039166;28;20201;-60
2021/08/05 05:57:43;;;;;;;2.60;2.40;;;;;;;25.06;42.52;97833.38;5038376;28;20271;-60
2021/08/05 06:00:11;;;;;;;2.60;2.40;;;;;;;25.07;42.59;97835.00;5038767;28;20196;-60
2021/08/05 06:02:38;;;;;;;3.80;2.10;;;;;;;25.08;42.51;97841.97;5038832;28;20280;-61
2021/08/05 06:05:05;;;;;;;2.50;2.03;;;;;;;25.10;42.78;97842.56;5038446;28;20281;-61
2021/08/05 06:07:45;;;;;;;2.30;2.17;;;;;;;25.14;42.65;97842.94;5037793;28;20190;-60
2021/08/05 06:10:14;;;;;;;2.20;2.10;;;;;;;25.21;42.50;97843.69;5038414;28;20689;-61
2021/08/05 06:12:41;;;;;;;3.07;2.87;;;;;;;25.23;42.53;97847.78;5036682;28;20321;-63
2021/08/05 06:15:09;;;;;;;3.20;2.90;;;;;;;25.18;42.67;97844.97;5035625;28;20194;-63
2021/08/05 06:17:35;;;;;;;3.80;3.40;;;;;;;25.13;42.86;97836.78;5034935;28;20585;-63
2021/08/05 06:20:03;;;;;;;3.87;3.27;;;;;;;25.08;43.30;97841.97;5035560;28;20247;-63
2021/08/05 06:22:30;;;;;;;3.87;3.23;;;;;;;25.02;43.46;97840.19;5035329;28;20214;-62
2021/08/05 06:24:56;;;;;;;3.50;3.20;;;;;;;25.03;43.51;97839.94;5034883;28;20256;-62
2021/08/05 06:27:24;;;;;;;4.00;3.60;;;;;;;25.04;43.71;97843.44;5033603;28;20190;-62
2021/08/05 06:29:50;;;;;;;4.90;3.37;;;;;;;24.96;43.81;97839.19;5034401;28;20190;-61
2021/08/05 06:32:17;;;;;;;6.60;3.60;;;;;;;24.80;44.07;97836.03;5034713;28;20190;-62
2021/08/05 06:34:43;;;;;;;3.80;3.47;;;;;;;24.77;44.35;97835.66;5034919;28;20197;-61
2021/08/05 06:37:10;;;;;;;5.10;4.17;;;;;;;24.73;44.33;97832.56;5033446;28;20265;-61
2021/08/05 06:39:36;;;;;;;4.07;3.67;;;;;;;24.72;44.61;97835.47;5034512;28;20244;-62
2021/08/05 06:42:03;;;;;;;7.00;4.00;;;;;;;24.69;44.77;97835.88;5033280;28;20194;-61
2021/08/05 06:44:34;;;;;;;4.60;4.10;;;;;;;24.67;44.63;97831.56;5035006;28;20251;-61
2021/08/05 06:47:05;;;;;;;6.03;4.03;;;;;;;24.70;44.65;97830.31;5033506;28;20209;-62
2021/08/05 06:49:32;;;;;;;4.27;3.50;;;;;;;24.72;44.84;97833.59;5033138;28;20182;-61
2021/08/05 06:51:59;;;;;;;5.73;3.47;;;;;;;24.72;44.81;97830.94;5034878;28;20648;-63
2021/08/05 06:54:25;;;;;;;4.37;3.97;;;;;;;24.70;45.05;97832.19;5034210;28;20664;-61
2021/08/05 06:56:53;;;;;;;3.33;3.07;;;;;;;24.67;45.10;97828.91;5034263;28;20214;-60
2021/08/05 06:59:20;;;;;;;3.73;3.43;;;;;;;24.69;45.10;97830.53;5034431;28;20189;-61
2021/08/05 07:01:47;;;;;;;4.00;3.60;;;;;;;24.72;45.03;97836.25;5032902;28;20219;-62
2021/08/05 07:04:14;;;;;;;3.80;3.40;;;;;;;24.80;44.87;97838.72;5034223;28;20232;-61
2021/08/05 07:06:40;;;;;;;4.07;3.40;;;;;;;24.84;44.87;97833.72;5034421;28;20256;-61
2021/08/05 07:09:07;;;;;;;4.60;4.20;;;;;;;24.88;45.00;97834.94;5034448;28;20194;-61
2021/08/05 07:11:33;;;;;;;5.17;3.70;;;;;;;24.92;44.71;97840.66;5034931;28;20198;-62
2021/08/05 07:14:00;;;;;;;4.20;3.80;;;;;;;24.96;44.66;97833.84;5034427;28;20268;-61
2021/08/05 07:16:27;;;;;;;4.23;3.83;;;;;;;24.97;44.84;97840.84;5033943;28;20209;-61
2021/08/05 07:18:54;;;;;;;5.77;4.40;;;;;;;24.99;44.82;97840.59;5034445;28;20192;-62
2021/08/05 07:21:20;;;;;;;4.73;4.23;;;;;;;24.99;45.01;97840.59;5033931;28;20244;-62
2021/08/05 07:23:47;;;;;;;5.27;4.17;;;;;;;25.01;44.99;97836.69;5033938;28;20723;-61
2021/08/05 07:26:13;;;;;;;4.47;4.13;;;;;;;25.01;45.06;97836.69;5035451;28;20186;-61
2021/08/05 07:28:40;;;;;;;4.60;4.20;;;;;;;25.02;44.96;97824.16;5035734;28;20193;-61
2021/08/05 07:31:06;;;;;;;5.43;4.37;;;;;;;25.06;44.97;97831.50;5035840;28;20669;-62
2021/08/05 07:33:33;;;;;;;4.73;3.90;;;;;;;25.03;45.05;97825.78;5035737;28;20240;-61
2021/08/05 07:35:59;;;;;;;4.33;3.93;;;;;;;25.05;44.83;97823.72;5035902;28;20206;-61
2021/08/05 07:38:26;;;;;;;5.50;5.00;;;;;;;25.27;44.49;97825.97;5035357;28;20595;-62
2021/08/05 07:40:52;;;;;;;4.70;4.30;;;;;;;25.29;44.49;97821.22;5033220;28;20244;-60
2021/08/05 07:43:19;;;;;;;5.23;4.83;;;;;;;25.31;44.74;97811.13;5033601;28;20271;-61
2021/08/05 07:45:45;;;;;;;5.27;4.87;;;;;;;24.98;45.21;97817.59;5033313;28;20243;-61
2021/08/05 07:48:12;;;;;;;5.37;4.97;;;;;;;24.80;45.90;97813.84;5033326;28;20205;-62
2021/08/05 07:50:39;;;;;;;5.80;5.30;;;;;;;24.73;46.08;97805.06;5034072;28;20591;-61
2021/08/05 07:53:05;;;;;;;5.73;5.20;;;;;;;24.71;45.93;97805.28;5033091;28;20209;-61
2021/08/05 07:55:32;;;;;;;5.10;4.70;;;;;;;24.75;45.80;97811.81;5033202;28;20664;-61
2021/08/05 07:57:58;;;;;;;6.03;5.03;;;;;;;24.80;45.71;97811.19;5033359;28;20210;-62
2021/08/05 08:00:25;;;;;;;4.77;4.37;;;;;;;24.78;45.79;97805.25;5033173;28;20240;-61
2021/08/05 08:02:52;;;;;;;5.37;4.10;;;;;;;24.79;46.02;97802.38;5032932;28;20205;-62
2021/08/05 08:05:18;;;;;;;5.17;4.50;;;;;;;24.80;45.68;97800.53;5033609;28;20269;-62
2021/08/05 08:07:45;;;;;;;4.57;4.17;;;;;;;24.83;45.66;97802.75;5033075;28;20174;-61
2021/08/05 08:10:13;;;;;;;5.47;4.83;;;;;;;24.83;45.74;97809.94;5032850;28;20289;-62
2021/08/05 08:12:40;;;;;;;4.93;4.37;;;;;;;24.85;45.64;97803.38;5033082;28;20260;-61
2021/08/05 08:15:07;;;;;;;4.27;3.97;;;;;;;24.90;45.81;97808.03;5032937;28;20203;-63
2021/08/05 08:17:34;;;;;;;4.13;3.73;;;;;;;24.91;45.52;97807.81;5032905;28;20242;-61
2021/08/05 08:20:00;;;;;;;5.23;4.10;;;;;;;24.96;45.38;97809.84;5033260;28;20551;-61
2021/08/05 08:22:27;;;;;;;5.23;4.10;;;;;;;24.99;45.51;97803.22;5033597;28;20209;-58
2021/08/05 08:24:53;;;;;;;5.40;3.43;;;;;;;25.07;45.37;97802.97;5032892;28;20197;-59
2021/08/05 08:27:20;;;;;;;4.73;3.80;;;;;;;25.10;45.17;97799.84;5032951;28;20598;-59
2021/08/05 08:29:46;;;;;;;4.77;3.30;;;;;;;25.13;45.07;97798.59;5033202;28;20186;-59
2021/08/05 08:32:13;;;;;;;4.00;3.70;;;;;;;25.19;44.81;97808.38;5032800;28;20190;-59
2021/08/05 08:34:39;;;;;;;3.57;3.27;;;;;;;25.19;44.86;97798.53;5033090;28;20656;-59
2021/08/05 08:37:06;;;;;;;3.93;3.63;;;;;;;25.25;44.45;97793.34;5033101;28;20213;-58
2021/08/05 08:39:33;;;;;;;4.10;3.70;;;;;;;25.19;44.49;97798.53;5032781;28;20182;-59
2021/08/05 08:42:00;;;;;;;3.97;3.57;;;;;;;25.20;44.42;97791.31;5033076;28;20240;-60
2021/08/05 08:44:27;;;;;;;3.93;3.50;;;;;;;25.20;44.42;97800.16;5033291;28;20600;-59
2021/08/05 08:46:54;;;;;;;4.67;3.60;;;;;;;25.18;44.40;97799.56;5032791;28;20190;-59
2021/08/05 08:49:24;;;;;;;3.73;3.43;;;;;;;25.15;44.61;97797.31;5032624;28;20679;-59
2021/08/05 08:51:54;;;;;;;3.80;3.30;;;;;;;25.19;44.46;97790.53;5034216;28;20194;-59
2021/08/05 08:54:21;;;;;;;4.30;3.30;;;;;;;25.20;44.41;97789.50;5036225;28;20255;-59
2021/08/05 08:56:48;;;;;;;3.13;2.93;;;;;;;25.20;44.28;97794.81;5036714;28;20604;-59
2021/08/05 08:59:17;;;;;;;3.57;3.27;;;;;;;25.23;44.49;97793.53;5036210;28;20190;-59
2021/08/05 09:01:44;;;;;;;3.53;3.33;;;;;;;25.24;44.14;97795.19;5036707;28;20239;-59
2021/08/05 09:04:11;;;;;;;3.33;3.03;;;;;;;25.23;44.04;97791.72;5036110;28;20210;-59
2021/08/05 09:06:37;;;;;;;3.23;3.00;;;;;;;25.21;44.12;97787.63;5036105;28;20595;-59
2021/08/05 09:09:04;;;;;;;3.30;3.00;;;;;;;25.18;44.24;97778.22;5036008;28;20193;-59
2021/08/05 09:11:34;;;;;;;3.20;2.90;;;;;;;25.17;44.37;97789.09;5036123;28;20189;-59
2021/08/05 09:14:00;;;;;;;3.30;3.07;;;;;;;25.15;44.46;97786.63;5035928;28;20578;-59
2021/08/05 09:16:31;;;;;;;3.20;3.00;;;;;;;25.16;44.23;97777.59;5036164;28;20209;-59
2021/08/05 09:19:15;;;;;;;3.70;2.90;;;;;;;25.19;44.38;97776.34;5036129;28;20201;-59
2021/08/05 09:21:53;;;;;;;2.97;2.77;;;;;;;25.20;43.95;97778.81;5036455;28;20501;-59
2021/08/05 09:24:28;;;;;;;4.50;3.13;;;;;;;25.23;44.21;97770.34;5035765;28;20241;-59
2021/08/05 09:27:02;;;;;;;4.43;3.10;;;;;;;25.26;43.89;97765.59;5036116;28;20170;-59
2021/08/05 09:29:30;;;;;;;3.20;3.00;;;;;;;25.27;43.89;97770.72;5036070;28;20177;-59
2021/08/05 09:32:00;;;;;;;3.27;2.97;;;;;;;25.29;44.00;97771.31;5035933;28;20621;-59
2021/08/05 09:34:31;;;;;;;2.90;2.70;;;;;;;25.31;43.82;97768.41;5051125;28;20240;-59
2021/08/05 09:37:01;;;;;;;3.40;3.10;;;;;;;25.30;43.89;97769.44;5035736;28;20198;-59
2021/08/05 09:39:32;;;;;;;3.27;2.97;;;;;;;25.21;44.04;97769.75;5035449;28;20680;-59
2021/08/05 09:42:03;;;;;;;2.77;2.53;;;;;;;25.19;44.06;97766.50;5036051;28;20181;-58
2021/08/05 09:44:38;;;;;;;3.00;2.67;;;;;;;25.23;44.08;97773.03;5035404;28;20197;-58
2021/08/05 09:47:06;;;;;;;3.37;2.80;;;;;;;25.20;43.83;97762.78;5035534;28;20261;-58
2021/08/05 09:49:35;;;;;;;3.13;2.93;;;;;;;25.22;44.10;97757.22;5035323;28;20190;-59
2021/08/05 09:52:06;;;;;;;2.77;2.57;;;;;;;25.28;43.79;97758.19;5035226;28;20189;-59
2021/08/05 09:54:38;;;;;;;3.37;2.80;;;;;;;25.35;43.60;97748.25;5035293;28;20642;-60
2021/08/05 09:57:06;;;;;;;3.50;3.20;;;;;;;25.34;43.80;97757.31;5036510;28;20243;-64
2021/08/05 09:59:33;;;;;;;3.40;3.10;;;;;;;25.34;44.05;97750.09;5036433;28;20182;-63
2021/08/05 10:02:07;;;;;;;3.43;2.90;;;;;;;25.40;43.91;97748.38;5035119;28;20679;-60
2021/08/05 10:04:35;;;;;;;4.10;2.83;;;;;;;25.45;44.01;97743.19;5034628;28;20257;-59
2021/08/05 10:07:07;;;;;;;2.90;2.50;;;;;;;25.51;43.76;97747.69;5035520;28;20240;-63
